Time;durP1;ratioP1;P1;durP2;ratioP2;P2;SDS_P1;SDS_P2;PMS_P1;PMS_P2;Temp;Humidity;BMP_temperature;BMP_pressure;BME280_temperature;BME280_humidity;BME280_pressure;Samples;Min_cycle;Max_cycle;Signal;HPM_P1;HPM_P2
2023/04/08 00:02:11;;;;;;;77.03;14.80;;;;;;;;;;5073850;28;20065;-80
2023/04/08 00:04:38;;;;;;;48.33;14.15;;;;;;;;;;5084467;28;20604;-80
2023/04/08 00:07:04;;;;;;;45.80;13.60;;;;;;;;;;5080989;28;20055;-79
2023/04/08 00:09:31;;;;;;;58.97;14.65;;;;;;;;;;5085942;28;20810;-79
2023/04/08 00:11:57;;;;;;;46.90;14.50;;;;;;;;;;5080543;28;20606;-80
2023/04/08 00:14:24;;;;;;;35.92;14.57;;;;;;;;;;5085322;28;20056;-80
2023/04/08 00:16:50;;;;;;;50.25;14.48;;;;;;;;;;5084051;28;20108;-79
2023/04/08 00:19:17;;;;;;;43.67;14.85;;;;;;;;;;5086364;28;20184;-79
2023/04/08 00:21:43;;;;;;;39.25;14.68;;;;;;;;;;5086022;28;20044;-80
2023/04/08 00:24:09;;;;;;;47.33;14.98;;;;;;;;;;5067707;28;20064;-79
2023/04/08 00:26:36;;;;;;;33.28;14.25;;;;;;;;;;5066694;28;20052;-80
2023/04/08 00:29:02;;;;;;;49.45;15.70;;;;;;;;;;5070226;28;20052;-80
2023/04/08 00:31:29;;;;;;;46.47;16.33;;;;;;;;;;5079540;28;20534;-80
2023/04/08 00:33:56;;;;;;;36.10;14.63;;;;;;;;;;5069366;28;20049;-80
2023/04/08 00:36:22;;;;;;;52.15;14.77;;;;;;;;;;5068502;28;20718;-80
2023/04/08 00:38:49;;;;;;;38.40;14.55;;;;;;;;;;5086314;28;20053;-81
2023/04/08 00:41:16;;;;;;;97.18;15.57;;;;;;;;;;5107558;27;20078;-81
2023/04/08 00:43:42;;;;;;;44.05;14.23;;;;;;;;;;5092504;27;20056;-80
2023/04/08 00:46:09;;;;;;;102.95;15.82;;;;;;;;;;5071663;28;20083;-79
2023/04/08 00:48:36;;;;;;;154.48;21.13;;;;;;;;;;5088464;28;20052;-80
2023/04/08 00:51:02;;;;;;;112.57;15.90;;;;;;;;;;5084524;28;20812;-80
2023/04/08 00:53:29;;;;;;;132.70;17.38;;;;;;;;;;5085358;28;20056;-80
2023/04/08 00:55:55;;;;;;;101.95;15.05;;;;;;;;;;5085393;28;20059;-80
2023/04/08 00:58:22;;;;;;;80.22;16.77;;;;;;;;;;5086390;28;20056;-81
2023/04/08 01:01:00;;;;;;;37.80;13.40;;;;;;;;;;5079924;27;20049;-80
2023/04/08 01:03:39;;;;;;;89.35;16.55;;;;;;;;;;5086451;28;20040;-80
2023/04/08 01:06:10;;;;;;;60.63;14.43;;;;;;;;;;5100193;28;20132;-80
2023/04/08 01:08:37;;;;;;;39.53;13.52;;;;;;;;;;5095458;27;20074;-81
2023/04/08 01:11:07;;;;;;;38.08;12.15;;;;;;;;;;5093242;27;20517;-79
2023/04/08 01:13:34;;;;;;;34.97;11.82;;;;;;;;;;5067627;28;20044;-80
2023/04/08 01:16:01;;;;;;;56.80;10.77;;;;;;;;;;5088178;28;20267;-80
2023/04/08 01:18:28;;;;;;;78.50;12.90;;;;;;;;;;5102097;27;20135;-80
2023/04/08 01:20:55;;;;;;;48.42;10.90;;;;;;;;;;5078901;28;20847;-80
2023/04/08 01:23:40;;;;;;;93.40;13.18;;;;;;;;;;5090506;28;20059;-81
2023/04/08 01:26:06;;;;;;;85.18;12.77;;;;;;;;;;5083141;28;20098;-79
2023/04/08 01:28:34;;;;;;;95.43;12.68;;;;;;;;;;5077012;28;20052;-79
2023/04/08 01:31:01;;;;;;;36.00;11.15;;;;;;;;;;5089919;28;20056;-79
2023/04/08 01:33:28;;;;;;;80.20;16.23;;;;;;;;;;5088897;28;20100;-80
2023/04/08 01:35:55;;;;;;;59.63;12.38;;;;;;;;;;5072873;28;20063;-79
2023/04/08 01:38:24;;;;;;;52.15;12.15;;;;;;;;;;5087265;28;20133;-80
2023/04/08 01:40:52;;;;;;;44.78;12.18;;;;;;;;;;5090917;28;20534;-80
2023/04/08 01:43:18;;;;;;;45.67;12.98;;;;;;;;;;5095768;28;20049;-80
2023/04/08 01:45:45;;;;;;;48.85;12.30;;;;;;;;;;5080140;28;20048;-80
2023/04/08 01:48:13;;;;;;;26.75;11.65;;;;;;;;;;5085196;28;20053;-80
2023/04/08 01:50:43;;;;;;;119.93;14.07;;;;;;;;;;5067541;28;20088;-80
2023/04/08 01:53:11;;;;;;;84.85;13.88;;;;;;;;;;5079054;28;20057;-80
2023/04/08 01:55:38;;;;;;;77.38;12.77;;;;;;;;;;5065655;28;20128;-80
2023/04/08 01:58:06;;;;;;;130.52;14.45;;;;;;;;;;5071111;28;20806;-80
2023/04/08 02:00:33;;;;;;;51.17;11.32;;;;;;;;;;5088389;28;20048;-81
2023/04/08 02:03:01;;;;;;;136.68;14.40;;;;;;;;;;5080579;28;20067;-80
2023/04/08 02:05:28;;;;;;;91.30;14.80;;;;;;;;;;5076827;28;20130;-79
2023/04/08 02:07:54;;;;;;;50.65;11.38;;;;;;;;;;5066143;28;20563;-79
2023/04/08 02:10:21;;;;;;;38.72;11.43;;;;;;;;;;5066367;28;20100;-79
2023/04/08 02:12:48;;;;;;;32.58;10.75;;;;;;;;;;5076842;28;20056;-79
2023/04/08 02:15:14;;;;;;;64.68;11.57;;;;;;;;;;5087664;28;21024;-80
2023/04/08 02:17:45;;;;;;;51.85;11.85;;;;;;;;;;5082791;27;20053;-79
2023/04/08 02:20:38;;;;;;;38.80;11.40;;;;;;;;;;5085076;28;20052;-80
2023/04/08 02:23:05;;;;;;;51.60;11.18;;;;;;;;;;5085097;28;21124;-79
2023/04/08 02:25:33;;;;;;;66.07;11.80;;;;;;;;;;5090907;28;20064;-80
2023/04/08 02:28:01;;;;;;;68.50;12.35;;;;;;;;;;5086660;28;20775;-79
2023/04/08 02:30:29;;;;;;;45.95;11.85;;;;;;;;;;5082864;28;20052;-80
2023/04/08 02:32:56;;;;;;;70.88;12.15;;;;;;;;;;5086558;28;20084;-80
2023/04/08 02:35:23;;;;;;;69.30;12.27;;;;;;;;;;5074016;28;20048;-80
2023/04/08 02:37:50;;;;;;;67.45;12.95;;;;;;;;;;5086658;28;20059;-78
2023/04/08 02:40:29;;;;;;;62.08;11.27;;;;;;;;;;5094139;28;20054;-78
2023/04/08 02:42:55;;;;;;;34.20;10.43;;;;;;;;;;5086692;28;20268;-78
2023/04/08 02:45:22;;;;;;;73.10;11.88;;;;;;;;;;5075764;28;20056;-79
2023/04/08 02:47:48;;;;;;;57.85;10.95;;;;;;;;;;5066095;28;20128;-79
2023/04/08 02:50:15;;;;;;;92.57;11.70;;;;;;;;;;5065668;28;20057;-78
2023/04/08 02:52:42;;;;;;;79.45;10.95;;;;;;;;;;5072423;28;20502;-78
2023/04/08 02:55:09;;;;;;;29.20;9.27;;;;;;;;;;5085073;28;20076;-78
2023/04/08 02:57:36;;;;;;;65.13;11.10;;;;;;;;;;5102372;27;20127;-78
2023/04/08 03:00:04;;;;;;;34.65;10.45;;;;;;;;;;5095001;28;20052;-80
2023/04/08 03:02:30;;;;;;;38.33;10.50;;;;;;;;;;5085500;28;20052;-78
2023/04/08 03:04:57;;;;;;;50.92;10.63;;;;;;;;;;5094363;28;20512;-78
2023/04/08 03:07:23;;;;;;;62.90;11.75;;;;;;;;;;5087303;27;20053;-79
2023/04/08 03:09:50;;;;;;;51.10;12.00;;;;;;;;;;5084255;28;20056;-78
2023/04/08 03:12:16;;;;;;;108.90;12.13;;;;;;;;;;5086171;28;20053;-78
2023/04/08 03:14:42;;;;;;;38.35;11.30;;;;;;;;;;5083822;28;20053;-78
2023/04/08 03:17:09;;;;;;;54.85;11.85;;;;;;;;;;5082525;28;21146;-78
2023/04/08 03:19:35;;;;;;;28.92;10.32;;;;;;;;;;5087582;28;20084;-79
2023/04/08 03:22:01;;;;;;;28.77;10.90;;;;;;;;;;5082660;28;20045;-79
2023/04/08 03:24:28;;;;;;;30.23;10.82;;;;;;;;;;5068820;28;20057;-79
2023/04/08 03:26:54;;;;;;;45.53;11.45;;;;;;;;;;5097128;27;20606;-78
2023/04/08 03:29:20;;;;;;;45.03;11.68;;;;;;;;;;5086088;28;20522;-78
2023/04/08 03:31:47;;;;;;;61.28;11.23;;;;;;;;;;5085621;28;20056;-79
2023/04/08 03:34:13;;;;;;;54.40;12.80;;;;;;;;;;5078929;28;20515;-78
2023/04/08 03:36:40;;;;;;;41.80;12.35;;;;;;;;;;5083022;28;20056;-78
2023/04/08 03:39:06;;;;;;;59.88;11.95;;;;;;;;;;5085240;28;20052;-78
2023/04/08 03:41:32;;;;;;;44.42;12.25;;;;;;;;;;5085193;28;20105;-80
2023/04/08 03:43:59;;;;;;;28.40;11.30;;;;;;;;;;5076415;28;20071;-78
2023/04/08 03:46:25;;;;;;;35.22;11.95;;;;;;;;;;5065241;28;20238;-79
2023/04/08 03:48:52;;;;;;;27.38;11.65;;;;;;;;;;5072175;28;20060;-78
2023/04/08 03:51:18;;;;;;;29.88;10.63;;;;;;;;;;5072671;28;20081;-79
2023/04/08 03:53:44;;;;;;;97.07;14.38;;;;;;;;;;5065014;28;20055;-78
2023/04/08 03:56:11;;;;;;;80.40;13.55;;;;;;;;;;5083544;28;20091;-78
2023/04/08 03:58:37;;;;;;;35.97;11.40;;;;;;;;;;5084775;28;20059;-79
2023/04/08 04:01:04;;;;;;;50.10;12.10;;;;;;;;;;5077105;28;20053;-79
2023/04/08 04:03:30;;;;;;;72.53;12.80;;;;;;;;;;5064480;28;20180;-79
2023/04/08 04:05:57;;;;;;;114.30;14.07;;;;;;;;;;5078551;28;20052;-78
2023/04/08 04:08:23;;;;;;;91.30;13.68;;;;;;;;;;5082331;28;20372;-79
2023/04/08 04:10:50;;;;;;;55.90;13.75;;;;;;;;;;5084744;28;20089;-79
2023/04/08 04:13:18;;;;;;;41.40;13.75;;;;;;;;;;5085008;28;20059;-78
2023/04/08 04:15:44;;;;;;;46.47;13.82;;;;;;;;;;5096209;28;20052;-79
2023/04/08 04:18:11;;;;;;;35.67;13.52;;;;;;;;;;5083139;27;20056;-79
2023/04/08 04:20:41;;;;;;;36.28;13.93;;;;;;;;;;5063462;28;20607;-79
2023/04/08 04:23:08;;;;;;;41.83;14.63;;;;;;;;;;5067782;28;20519;-80
2023/04/08 04:25:34;;;;;;;77.15;14.20;;;;;;;;;;5077617;28;20053;-80
2023/04/08 04:28:02;;;;;;;35.17;13.32;;;;;;;;;;5065716;28;20067;-79
2023/04/08 04:30:28;;;;;;;39.17;13.70;;;;;;;;;;5065082;28;20064;-79
2023/04/08 04:32:55;;;;;;;28.60;12.88;;;;;;;;;;5062536;28;20064;-79
2023/04/08 04:35:21;;;;;;;34.85;13.02;;;;;;;;;;5072460;28;20064;-79
2023/04/08 04:37:49;;;;;;;30.55;14.27;;;;;;;;;;5064789;28;20516;-78
2023/04/08 04:40:15;;;;;;;39.15;13.88;;;;;;;;;;5081640;28;20074;-79
2023/04/08 04:42:41;;;;;;;58.75;13.07;;;;;;;;;;5080214;28;20056;-79
2023/04/08 04:45:08;;;;;;;42.08;13.75;;;;;;;;;;5064262;28;20092;-79
2023/04/08 04:47:35;;;;;;;51.05;12.70;;;;;;;;;;5083087;28;20052;-79
2023/04/08 04:50:01;;;;;;;32.08;13.35;;;;;;;;;;5084235;28;20518;-79
2023/04/08 04:52:28;;;;;;;47.03;13.32;;;;;;;;;;5083153;28;20049;-79
2023/04/08 04:54:55;;;;;;;35.53;13.57;;;;;;;;;;5078652;28;20148;-78
2023/04/08 04:57:22;;;;;;;32.22;12.68;;;;;;;;;;5077958;28;20147;-79
2023/04/08 04:59:48;;;;;;;48.50;13.07;;;;;;;;;;5063907;28;20553;-78
2023/04/08 05:02:15;;;;;;;38.83;13.00;;;;;;;;;;5063632;28;21007;-79
2023/04/08 05:04:42;;;;;;;27.60;12.48;;;;;;;;;;5078629;28;20067;-79
2023/04/08 05:07:08;;;;;;;30.15;11.95;;;;;;;;;;5093478;27;20519;-78
2023/04/08 05:09:34;;;;;;;30.73;13.18;;;;;;;;;;5082342;28;20060;-79
2023/04/08 05:12:01;;;;;;;65.60;12.45;;;;;;;;;;5084011;28;20052;-79
2023/04/08 05:14:28;;;;;;;38.50;12.88;;;;;;;;;;5081120;28;20097;-79
2023/04/08 05:16:54;;;;;;;40.78;12.95;;;;;;;;;;5083781;28;20088;-78
2023/04/08 05:19:20;;;;;;;34.30;11.52;;;;;;;;;;5072578;28;20872;-79
2023/04/08 05:21:47;;;;;;;30.65;11.27;;;;;;;;;;5063384;28;20057;-79
2023/04/08 05:24:13;;;;;;;39.38;12.18;;;;;;;;;;5067668;28;20053;-78
2023/04/08 05:26:40;;;;;;;29.27;12.45;;;;;;;;;;5079847;27;20064;-78
2023/04/08 05:29:06;;;;;;;64.88;12.45;;;;;;;;;;5077798;28;20147;-79
2023/04/08 05:31:32;;;;;;;38.58;12.32;;;;;;;;;;5079996;28;20069;-79
2023/04/08 05:33:59;;;;;;;62.20;12.10;;;;;;;;;;5067356;28;20057;-79
2023/04/08 05:36:26;;;;;;;94.35;12.80;;;;;;;;;;5071206;28;20053;-78
2023/04/08 05:38:52;;;;;;;50.28;11.93;;;;;;;;;;5066825;28;20053;-79
2023/04/08 05:41:18;;;;;;;90.25;13.20;;;;;;;;;;5071402;28;20052;-79
2023/04/08 05:43:45;;;;;;;54.85;11.75;;;;;;;;;;5082032;28;20051;-79
2023/04/08 05:46:11;;;;;;;61.00;12.00;;;;;;;;;;5086741;28;20048;-80
2023/04/08 05:48:37;;;;;;;90.13;12.80;;;;;;;;;;5082868;28;20067;-78
2023/04/08 05:51:04;;;;;;;37.80;10.80;;;;;;;;;;5082423;28;20065;-78
2023/04/08 05:53:31;;;;;;;35.97;11.05;;;;;;;;;;5071588;28;20079;-78
2023/04/08 05:55:57;;;;;;;31.85;11.20;;;;;;;;;;5086736;28;20075;-78
2023/04/08 05:58:23;;;;;;;37.53;11.55;;;;;;;;;;5085675;28;20511;-78
2023/04/08 06:00:50;;;;;;;42.22;11.85;;;;;;;;;;5084003;28;20137;-79
2023/04/08 06:03:16;;;;;;;25.60;10.77;;;;;;;;;;5084211;28;20055;-78
2023/04/08 06:05:46;;;;;;;28.10;10.20;;;;;;;;;;5084501;28;20053;-79
2023/04/08 06:08:12;;;;;;;47.30;10.40;;;;;;;;;;5086413;28;20136;-78
2023/04/08 06:10:39;;;;;;;31.05;9.80;;;;;;;;;;5085897;28;20064;-78
2023/04/08 06:13:05;;;;;;;27.25;9.75;;;;;;;;;;5099333;27;20079;-78
2023/04/08 06:15:31;;;;;;;20.63;9.30;;;;;;;;;;5086460;27;20529;-79
2023/04/08 06:17:58;;;;;;;16.83;9.18;;;;;;;;;;5078392;28;20061;-79
2023/04/08 06:20:24;;;;;;;19.77;7.97;;;;;;;;;;5086693;27;20056;-79
2023/04/08 06:22:50;;;;;;;18.23;9.35;;;;;;;;;;5086713;28;20147;-78
2023/04/08 06:25:17;;;;;;;14.60;8.55;;;;;;;;;;5085311;28;20048;-79
2023/04/08 06:27:43;;;;;;;16.33;9.07;;;;;;;;;;5084795;28;20160;-78
2023/04/08 06:30:10;;;;;;;15.50;9.55;;;;;;;;;;5084608;28;20052;-79
2023/04/08 06:32:36;;;;;;;16.80;9.57;;;;;;;;;;5079553;27;20068;-79
2023/04/08 06:35:03;;;;;;;15.77;9.07;;;;;;;;;;5086846;27;20084;-79
2023/04/08 06:37:29;;;;;;;18.90;9.35;;;;;;;;;;5086286;28;20048;-79
2023/04/08 06:39:55;;;;;;;15.50;9.20;;;;;;;;;;5084614;28;20056;-79
2023/04/08 06:42:22;;;;;;;16.02;9.25;;;;;;;;;;5096588;28;20047;-79
2023/04/08 06:44:48;;;;;;;15.90;9.35;;;;;;;;;;5094701;27;20868;-79
2023/04/08 06:47:15;;;;;;;16.88;9.27;;;;;;;;;;5078568;28;20884;-79
2023/04/08 06:49:42;;;;;;;15.15;9.48;;;;;;;;;;5065393;28;21049;-79
2023/04/08 06:52:08;;;;;;;16.90;10.00;;;;;;;;;;5080364;27;20148;-79
2023/04/08 06:54:35;;;;;;;15.50;9.65;;;;;;;;;;5094917;28;20052;-78
2023/04/08 06:57:01;;;;;;;16.08;10.05;;;;;;;;;;5083718;28;20068;-79
2023/04/08 06:59:28;;;;;;;15.20;9.30;;;;;;;;;;5081889;28;20477;-79
2023/04/08 07:01:55;;;;;;;17.80;10.10;;;;;;;;;;5082301;27;20056;-78
2023/04/08 07:04:21;;;;;;;16.67;9.88;;;;;;;;;;5083959;27;20515;-79
2023/04/08 07:06:49;;;;;;;16.45;9.88;;;;;;;;;;5083243;28;20536;-79
2023/04/08 07:09:15;;;;;;;15.38;10.13;;;;;;;;;;5073624;28;20049;-79
2023/04/08 07:11:41;;;;;;;16.23;9.70;;;;;;;;;;5077031;28;20470;-79
2023/04/08 07:14:08;;;;;;;19.92;12.00;;;;;;;;;;5074430;28;20052;-78
2023/04/08 07:16:34;;;;;;;20.38;12.07;;;;;;;;;;5084489;28;20057;-79
2023/04/08 07:19:00;;;;;;;20.65;11.57;;;;;;;;;;5088703;28;20170;-79
2023/04/08 07:21:27;;;;;;;19.45;11.60;;;;;;;;;;5091464;28;20063;-79
2023/04/08 07:23:53;;;;;;;16.42;10.43;;;;;;;;;;5092029;28;20048;-79
2023/04/08 07:26:21;;;;;;;17.70;10.80;;;;;;;;;;5086258;28;20155;-80
2023/04/08 07:28:48;;;;;;;17.20;10.23;;;;;;;;;;5085682;28;20067;-80
2023/04/08 07:31:15;;;;;;;15.65;9.93;;;;;;;;;;5083804;28;20060;-80
2023/04/08 07:33:42;;;;;;;14.98;9.32;;;;;;;;;;5089988;28;20059;-80
2023/04/08 07:36:09;;;;;;;15.60;8.43;;;;;;;;;;5100128;28;20074;-80
2023/04/08 07:38:36;;;;;;;15.05;9.55;;;;;;;;;;5108058;27;20052;-81
2023/04/08 07:41:02;;;;;;;14.63;8.32;;;;;;;;;;5105681;27;20098;-81
2023/04/08 07:43:36;;;;;;;12.68;8.05;;;;;;;;;;5070995;28;20036;-81
2023/04/08 07:46:05;;;;;;;12.05;7.90;;;;;;;;;;5081158;28;20060;-80
2023/04/08 07:48:32;;;;;;;12.43;7.68;;;;;;;;;;5087755;28;20052;-80
2023/04/08 07:51:02;;;;;;;13.43;8.30;;;;;;;;;;5097581;28;20060;-80
2023/04/08 07:53:36;;;;;;;14.95;8.50;;;;;;;;;;5108692;27;20148;-80
2023/04/08 07:56:09;;;;;;;13.48;8.27;;;;;;;;;;5072761;28;20135;-80
2023/04/08 07:58:35;;;;;;;13.40;8.65;;;;;;;;;;5081714;28;20155;-79
2023/04/08 08:01:01;;;;;;;12.88;8.07;;;;;;;;;;5083762;28;20471;-80
2023/04/08 08:03:28;;;;;;;14.75;8.15;;;;;;;;;;5083183;28;20063;-80
2023/04/08 08:05:57;;;;;;;13.38;8.05;;;;;;;;;;5079982;28;20584;-80
2023/04/08 08:08:24;;;;;;;13.00;8.13;;;;;;;;;;5076245;28;20056;-79
2023/04/08 08:10:50;;;;;;;13.45;8.60;;;;;;;;;;5081741;28;20048;-79
2023/04/08 08:13:20;;;;;;;13.35;8.73;;;;;;;;;;5106981;27;20960;-79
2023/04/08 08:15:46;;;;;;;12.23;8.00;;;;;;;;;;5091892;28;20060;-79
2023/04/08 08:18:12;;;;;;;12.80;7.65;;;;;;;;;;5072563;28;20061;-79
2023/04/08 08:20:39;;;;;;;11.38;8.02;;;;;;;;;;5080784;28;20052;-79
2023/04/08 08:23:05;;;;;;;14.55;8.18;;;;;;;;;;5077792;28;20270;-79
2023/04/08 08:25:31;;;;;;;15.20;8.93;;;;;;;;;;5085527;28;20164;-78
2023/04/08 08:27:58;;;;;;;12.70;8.25;;;;;;;;;;5077002;27;20059;-78
2023/04/08 08:30:25;;;;;;;11.18;7.40;;;;;;;;;;5071099;28;20607;-79
2023/04/08 08:32:51;;;;;;;12.32;7.90;;;;;;;;;;5080727;28;20044;-79
2023/04/08 08:35:18;;;;;;;12.75;8.40;;;;;;;;;;5078078;28;20167;-79
2023/04/08 08:37:44;;;;;;;12.60;8.43;;;;;;;;;;5075165;28;20052;-79
2023/04/08 08:40:11;;;;;;;12.25;7.85;;;;;;;;;;5104925;27;20083;-79
2023/04/08 08:42:37;;;;;;;12.10;7.95;;;;;;;;;;5100545;28;20056;-79
2023/04/08 08:45:05;;;;;;;11.90;7.88;;;;;;;;;;5076472;27;20091;-79
2023/04/08 08:47:32;;;;;;;11.25;7.63;;;;;;;;;;5077989;28;20951;-79
2023/04/08 08:49:58;;;;;;;13.63;8.25;;;;;;;;;;5080891;28;20048;-79
2023/04/08 08:52:25;;;;;;;11.90;8.05;;;;;;;;;;5081148;28;20048;-78
2023/04/08 08:54:57;;;;;;;12.82;7.65;;;;;;;;;;5081448;28;20186;-79
2023/04/08 08:57:24;;;;;;;12.07;7.68;;;;;;;;;;5075373;28;20939;-79
2023/04/08 08:59:51;;;;;;;13.40;7.78;;;;;;;;;;5069619;28;20091;-79
2023/04/08 09:02:25;;;;;;;12.45;7.47;;;;;;;;;;5071524;28;20060;-77
2023/04/08 09:04:56;;;;;;;12.13;7.22;;;;;;;;;;5063192;28;20076;-77
2023/04/08 09:07:24;;;;;;;12.93;8.20;;;;;;;;;;5066813;28;20060;-78
2023/04/08 09:09:51;;;;;;;10.85;7.60;;;;;;;;;;5075893;28;20079;-77
2023/04/08 09:12:17;;;;;;;12.48;8.32;;;;;;;;;;5102424;28;20059;-76
2023/04/08 09:14:44;;;;;;;13.85;8.10;;;;;;;;;;5104224;27;20135;-78
2023/04/08 09:17:11;;;;;;;12.57;8.48;;;;;;;;;;5080830;27;20045;-78
2023/04/08 09:19:38;;;;;;;12.32;8.45;;;;;;;;;;5084045;27;20138;-78
2023/04/08 09:22:08;;;;;;;14.93;8.70;;;;;;;;;;5070574;28;20393;-78
2023/04/08 09:24:35;;;;;;;11.00;8.02;;;;;;;;;;5081035;28;20059;-77
2023/04/08 09:27:03;;;;;;;12.00;7.78;;;;;;;;;;5076293;28;20143;-78
2023/04/08 09:29:29;;;;;;;12.07;8.27;;;;;;;;;;5079476;28;20057;-78
2023/04/08 09:32:00;;;;;;;14.98;8.57;;;;;;;;;;5078179;28;20055;-78
2023/04/08 09:34:27;;;;;;;12.93;8.40;;;;;;;;;;5083281;28;20119;-78
2023/04/08 09:36:54;;;;;;;12.48;8.32;;;;;;;;;;5078507;28;20045;-78
2023/04/08 09:39:21;;;;;;;12.43;8.55;;;;;;;;;;5076353;28;20078;-78
2023/04/08 09:41:49;;;;;;;12.35;8.70;;;;;;;;;;5072291;28;20052;-78
2023/04/08 09:44:17;;;;;;;14.07;8.63;;;;;;;;;;5061935;28;20045;-78
2023/04/08 09:46:43;;;;;;;11.55;8.05;;;;;;;;;;5063070;28;20225;-77
2023/04/08 09:49:17;;;;;;;14.18;9.32;;;;;;;;;;5071851;28;20048;-78
2023/04/08 09:51:43;;;;;;;15.63;8.50;;;;;;;;;;5103390;27;20048;-77
2023/04/08 09:54:12;;;;;;;12.07;8.40;;;;;;;;;;5087175;27;20057;-80
2023/04/08 09:56:59;;;;;;;13.20;8.88;;;;;;;;;;5085072;28;20056;-79
2023/04/08 09:59:30;;;;;;;14.43;8.73;;;;;;;;;;5076952;28;20113;-79
2023/04/08 10:01:56;;;;;;;;;;;;;;;;;;5079522;28;20847;-80
2023/04/08 10:04:25;;;;;;;13.57;8.63;;;;;;;;;;5064471;28;48095;-79
2023/04/08 10:06:56;;;;;;;15.00;9.38;;;;;;;;;;5083470;28;20060;-79
2023/04/08 10:09:22;;;;;;;13.13;9.10;;;;;;;;;;5085853;28;20775;-79
2023/04/08 10:11:49;;;;;;;14.27;9.35;;;;;;;;;;5068731;28;21261;-79
2023/04/08 10:14:16;;;;;;;14.20;8.80;;;;;;;;;;5085426;27;20056;-79
2023/04/08 10:16:42;;;;;;;11.45;8.25;;;;;;;;;;5071454;28;20048;-79
2023/04/08 10:19:28;;;;;;;12.73;8.10;;;;;;;;;;5094677;27;20110;-79
2023/04/08 10:21:54;;;;;;;11.40;8.40;;;;;;;;;;5076129;28;20978;-79
2023/04/08 10:24:24;;;;;;;10.57;8.05;;;;;;;;;;5065841;28;20053;-79
2023/04/08 10:26:50;;;;;;;13.05;8.63;;;;;;;;;;5065612;28;20053;-79
2023/04/08 10:29:17;;;;;;;12.40;8.60;;;;;;;;;;5090212;28;20064;-79
2023/04/08 10:31:47;;;;;;;12.32;7.97;;;;;;;;;;5073719;27;20136;-79
2023/04/08 10:34:20;;;;;;;13.20;8.85;;;;;;;;;;5068779;28;20058;-79
2023/04/08 10:36:47;;;;;;;13.50;8.00;;;;;;;;;;5094407;28;20088;-80
2023/04/08 10:39:17;;;;;;;12.20;8.48;;;;;;;;;;5085598;28;20048;-79
2023/04/08 10:41:44;;;;;;;10.68;7.78;;;;;;;;;;5081853;28;20056;-78
2023/04/08 10:44:20;;;;;;;12.10;8.00;;;;;;;;;;5071868;28;21086;-79
2023/04/08 10:46:48;;;;;;;12.07;8.25;;;;;;;;;;5071518;28;20128;-79
2023/04/08 10:49:15;;;;;;;10.90;7.60;;;;;;;;;;5066212;28;20160;-79
2023/04/08 10:51:43;;;;;;;13.38;8.38;;;;;;;;;;5068018;28;20052;-79
2023/04/08 10:54:10;;;;;;;11.57;8.18;;;;;;;;;;5070294;28;20198;-79
2023/04/08 10:56:44;;;;;;;13.07;8.82;;;;;;;;;;5079117;28;20162;-78
2023/04/08 10:59:10;;;;;;;11.05;7.75;;;;;;;;;;5074911;27;20053;-79
2023/04/08 11:01:39;;;;;;;11.05;7.38;;;;;;;;;;5072338;28;20061;-78
2023/04/08 11:04:06;;;;;;;11.20;7.65;;;;;;;;;;5071717;28;20057;-77
2023/04/08 11:06:35;;;;;;;12.23;8.40;;;;;;;;;;5076988;28;20588;-76
2023/04/08 11:09:03;;;;;;;11.88;8.10;;;;;;;;;;5079283;28;20100;-77
2023/04/08 11:11:30;;;;;;;10.10;7.70;;;;;;;;;;5065880;28;20484;-77
2023/04/08 11:13:56;;;;;;;12.00;8.00;;;;;;;;;;5065083;28;20053;-77
2023/04/08 11:16:24;;;;;;;10.80;7.38;;;;;;;;;;5064632;28;20056;-77
2023/04/08 11:18:52;;;;;;;10.73;7.20;;;;;;;;;;5075576;28;20048;-79
2023/04/08 11:21:21;;;;;;;11.73;7.70;;;;;;;;;;5083488;27;20056;-79
2023/04/08 11:23:51;;;;;;;9.88;7.20;;;;;;;;;;5082778;28;20056;-78
2023/04/08 11:26:19;;;;;;;11.85;7.55;;;;;;;;;;5068519;28;20060;-78
2023/04/08 11:28:49;;;;;;;11.30;7.38;;;;;;;;;;5083368;28;20051;-77
2023/04/08 11:31:16;;;;;;;12.50;7.53;;;;;;;;;;5076823;28;20061;-77
2023/04/08 11:33:47;;;;;;;12.23;7.68;;;;;;;;;;5081773;28;20128;-77
2023/04/08 11:36:16;;;;;;;12.07;7.75;;;;;;;;;;5093842;28;20135;-77
2023/04/08 11:38:42;;;;;;;11.23;7.00;;;;;;;;;;5092646;27;20049;-77
2023/04/08 11:41:13;;;;;;;13.93;7.57;;;;;;;;;;5071315;28;20056;-77
2023/04/08 11:43:49;;;;;;;11.38;7.45;;;;;;;;;;5089481;28;20067;-76
2023/04/08 11:46:16;;;;;;;12.50;8.30;;;;;;;;;;5095371;27;20048;-79
2023/04/08 11:48:55;;;;;;;11.85;7.95;;;;;;;;;;5089467;27;20063;-78
2023/04/08 11:51:22;;;;;;;11.85;7.78;;;;;;;;;;5065279;28;20057;-77
2023/04/08 11:53:50;;;;;;;11.30;7.25;;;;;;;;;;5076301;28;20052;-77
2023/04/08 11:56:23;;;;;;;14.18;7.40;;;;;;;;;;5080863;28;20946;-78
2023/04/08 11:58:50;;;;;;;12.52;7.32;;;;;;;;;;5076609;28;21104;-77
2023/04/08 12:01:17;;;;;;;11.40;7.13;;;;;;;;;;5068507;28;20060;-80
2023/04/08 12:03:53;;;;;;;15.38;7.00;;;;;;;;;;5065793;28;20164;-78
2023/04/08 12:06:20;;;;;;;12.05;7.18;;;;;;;;;;5065412;28;20495;-78
2023/04/08 12:08:47;;;;;;;10.52;6.53;;;;;;;;;;5065421;28;20084;-76
2023/04/08 12:11:14;;;;;;;12.40;6.78;;;;;;;;;;5065317;28;20057;-78
2023/04/08 12:13:45;;;;;;;12.88;6.35;;;;;;;;;;5064857;28;20061;-79
2023/04/08 12:16:11;;;;;;;12.15;6.60;;;;;;;;;;5080033;28;20059;-77
2023/04/08 12:18:38;;;;;;;12.82;6.50;;;;;;;;;;5085471;28;20061;-78
2023/04/08 12:21:04;;;;;;;11.50;7.03;;;;;;;;;;5064219;28;20053;-77
2023/04/08 12:23:31;;;;;;;10.82;6.30;;;;;;;;;;5065071;28;20063;-77
2023/04/08 12:25:57;;;;;;;13.73;5.75;;;;;;;;;;5064264;28;20045;-77
2023/04/08 12:28:23;;;;;;;13.90;5.95;;;;;;;;;;5070277;28;20975;-76
2023/04/08 12:30:49;;;;;;;13.43;5.93;;;;;;;;;;5078840;28;20544;-77
2023/04/08 12:33:16;;;;;;;13.05;6.45;;;;;;;;;;5063697;28;20052;-76
2023/04/08 12:35:43;;;;;;;11.02;6.05;;;;;;;;;;5064755;28;20059;-77
2023/04/08 12:38:09;;;;;;;13.30;6.60;;;;;;;;;;5064878;28;20055;-77
2023/04/08 12:40:36;;;;;;;10.38;5.18;;;;;;;;;;5064983;28;20053;-77
2023/04/08 12:43:02;;;;;;;10.43;5.38;;;;;;;;;;5068667;28;20052;-78
2023/04/08 12:45:28;;;;;;;8.98;5.40;;;;;;;;;;5082743;28;20053;-77
2023/04/08 12:47:55;;;;;;;9.52;5.78;;;;;;;;;;5083893;28;20083;-77
2023/04/08 12:50:22;;;;;;;10.20;5.95;;;;;;;;;;5085029;28;20076;-77
2023/04/08 12:52:48;;;;;;;9.75;5.22;;;;;;;;;;5084515;28;20133;-77
2023/04/08 12:55:15;;;;;;;9.82;5.72;;;;;;;;;;5084688;28;20053;-76
2023/04/08 12:57:41;;;;;;;8.52;5.22;;;;;;;;;;5079223;28;20053;-78
2023/04/08 13:00:08;;;;;;;9.75;5.30;;;;;;;;;;5083575;28;20129;-76
2023/04/08 13:02:34;;;;;;;6.97;4.40;;;;;;;;;;5084780;28;20131;-78
2023/04/08 13:05:01;;;;;;;8.15;4.20;;;;;;;;;;5083634;28;20053;-77
2023/04/08 13:07:27;;;;;;;7.25;4.00;;;;;;;;;;5085155;28;20061;-77
2023/04/08 13:09:53;;;;;;;8.15;4.97;;;;;;;;;;5083415;28;20136;-80
2023/04/08 13:12:20;;;;;;;9.98;4.70;;;;;;;;;;5083168;28;20056;-77
2023/04/08 13:14:46;;;;;;;7.00;4.20;;;;;;;;;;5082036;28;20061;-76
2023/04/08 13:17:12;;;;;;;7.00;4.03;;;;;;;;;;5079882;28;20499;-80
2023/04/08 13:19:39;;;;;;;8.40;4.55;;;;;;;;;;5084567;28;20053;-79
2023/04/08 13:22:05;;;;;;;8.25;4.65;;;;;;;;;;5078634;28;20053;-77
2023/04/08 13:24:32;;;;;;;8.10;4.68;;;;;;;;;;5084852;28;20060;-78
2023/04/08 13:26:58;;;;;;;9.98;5.70;;;;;;;;;;5084322;28;20648;-76
2023/04/08 13:29:25;;;;;;;9.60;5.93;;;;;;;;;;5084922;28;20140;-76
2023/04/08 13:31:52;;;;;;;7.35;4.97;;;;;;;;;;5083341;28;20685;-75
2023/04/08 13:34:18;;;;;;;7.43;4.53;;;;;;;;;;5073293;28;20064;-76
2023/04/08 13:36:44;;;;;;;7.88;5.10;;;;;;;;;;5083564;28;20049;-77
2023/04/08 13:39:11;;;;;;;7.53;5.20;;;;;;;;;;5083890;28;20053;-76
2023/04/08 13:41:37;;;;;;;8.00;5.20;;;;;;;;;;5084576;28;20064;-76
2023/04/08 13:44:04;;;;;;;10.07;5.43;;;;;;;;;;5084209;28;20135;-76
2023/04/08 13:46:30;;;;;;;8.52;5.18;;;;;;;;;;5074645;28;20061;-78
2023/04/08 13:48:57;;;;;;;8.57;5.43;;;;;;;;;;5081894;28;20053;-76
2023/04/08 13:51:23;;;;;;;7.47;5.30;;;;;;;;;;5084366;28;20045;-76
2023/04/08 13:53:50;;;;;;;7.93;5.07;;;;;;;;;;5087006;28;20122;-76
2023/04/08 13:56:16;;;;;;;9.50;5.93;;;;;;;;;;5076763;28;20053;-76
2023/04/08 13:58:42;;;;;;;8.23;5.72;;;;;;;;;;5068120;28;20057;-75
2023/04/08 14:01:12;;;;;;;10.43;5.57;;;;;;;;;;5069227;28;20841;-77
2023/04/08 14:03:39;;;;;;;8.40;5.72;;;;;;;;;;5066824;28;20053;-79
2023/04/08 14:06:05;;;;;;;8.05;5.80;;;;;;;;;;5068967;28;20053;-78
2023/04/08 14:08:32;;;;;;;8.52;5.53;;;;;;;;;;5088006;28;20143;-76
2023/04/08 14:10:58;;;;;;;8.73;5.78;;;;;;;;;;5087666;28;20118;-76
2023/04/08 14:13:25;;;;;;;8.80;5.53;;;;;;;;;;5075206;28;20144;-75
2023/04/08 14:15:53;;;;;;;8.80;4.90;;;;;;;;;;5066884;28;20060;-75
2023/04/08 14:18:20;;;;;;;7.60;4.78;;;;;;;;;;5066001;28;20053;-80
2023/04/08 14:20:46;;;;;;;7.93;5.30;;;;;;;;;;5085874;28;20183;-79
2023/04/08 14:23:12;;;;;;;10.35;5.80;;;;;;;;;;5087549;28;20541;-76
2023/04/08 14:25:39;;;;;;;9.05;5.95;;;;;;;;;;5087389;28;20493;-76
2023/04/08 14:28:06;;;;;;;11.73;6.35;;;;;;;;;;5087755;28;20079;-77